Time;durP1;ratioP1;P1;durP2;ratioP2;P2;SDS_P1;SDS_P2;PMS_P1;PMS_P2;Temp;Humidity;BMP_temperature;BMP_pressure;BME280_temperature;BME280_humidity;BME280_pressure;Samples;Min_cycle;Max_cycle;Signal;HPM_P1;HPM_P2
2022/05/21 00:02:11;;;;;;;;;;;;;;;17.97;51.79;99360.77;107898;1271;94675;-68
2022/05/21 00:04:42;;;;;;;;;;;;;;;17.98;51.79;99355.56;107224;1271;123713;-68
2022/05/21 00:07:13;;;;;;;;;;;;;;;18.01;51.79;99352.92;106393;1271;107163;-68
2022/05/21 00:09:44;;;;;;;;;;;;;;;18.03;51.74;99350.66;107437;1270;124078;-68
2022/05/21 00:12:14;;;;;;;;;;;;;;;18.04;51.78;99343.86;107854;1271;94625;-68
2022/05/21 00:14:44;;;;;;;;;;;;;;;18.05;51.83;99345.58;107839;1268;94757;-66
2022/05/21 00:17:15;;;;;;;;;;;;;;;18.04;52.04;99345.63;107281;1271;123620;-67
2022/05/21 00:19:45;;;;;;;;;;;;;;;18.03;52.12;99339.37;106443;1271;107751;-68
2022/05/21 00:22:16;;;;;;;;;;;;;;;18.03;52.43;99335.17;107466;1271;124383;-67
2022/05/21 00:24:46;;;;;;;;;;;;;;;18.04;52.64;99329.66;106658;1271;96553;-66
2022/05/21 00:27:17;;;;;;;;;;;;;;;18.03;52.90;99326.16;106318;1271;96683;-67
2022/05/21 00:29:47;;;;;;;;;;;;;;;18.01;53.17;99322.65;106324;1270;111345;-68
2022/05/21 00:32:18;;;;;;;;;;;;;;;17.95;54.25;99322.75;107219;1271;109143;-69
2022/05/21 00:34:48;;;;;;;;;;;;;;;17.86;54.59;99310.81;106786;1271;123892;-67
2022/05/21 00:37:18;;;;;;;;;;;;;;;17.77;55.03;99300.02;106328;1270;96460;-67
2022/05/21 00:39:49;;;;;;;;;;;;;;;17.68;55.60;99296.31;106208;1270;123921;-67
2022/05/21 00:42:19;;;;;;;;;;;;;;;17.58;56.07;99305.73;106335;1271;111244;-68
2022/05/21 00:44:50;;;;;;;;;;;;;;;17.48;56.91;99340.20;106276;1271;109088;-67
2022/05/21 00:47:20;;;;;;;;;;;;;;;17.39;57.79;99392.33;107638;1271;126097;-67
2022/05/21 00:49:51;;;;;;;;;;;;;;;17.35;58.41;99425.89;106289;1271;96604;-66
2022/05/21 00:52:23;;;;;;;;;;;;;;;17.34;59.30;99447.59;106230;1268;123603;-65
2022/05/21 00:54:57;;;;;;;;;;;;;;;17.26;60.22;99465.73;106359;1271;112324;-68
2022/05/21 00:57:29;;;;;;;;;;;;;;;17.12;60.93;99443.87;107743;1271;123850;-66
2022/05/21 01:00:02;;;;;;;;;;;;;;;16.98;61.51;99431.71;107850;1270;107726;-65
2022/05/21 01:02:34;;;;;;;;;;;;;;;16.85;61.60;99420.71;107877;1270;94702;-66
2022/05/21 01:05:08;;;;;;;;;;;;;;;16.73;62.27;99398.23;107743;1271;124634;-66
2022/05/21 01:07:39;;;;;;;;;;;;;;;16.61;63.01;99389.77;107851;1271;111825;-66
2022/05/21 01:10:10;;;;;;;;;;;;;;;16.51;63.35;99363.23;107761;1270;123740;-66
2022/05/21 01:12:44;;;;;;;;;;;;;;;16.42;64.00;99336.17;107824;1271;106614;-66
2022/05/21 01:15:16;;;;;;;;;;;;;;;16.35;64.56;99324.74;107844;1270;94904;-66
2022/05/21 01:17:47;;;;;;;;;;;;;;;16.32;65.19;99314.34;106950;1271;96472;-64
2022/05/21 01:20:20;;;;;;;;;;;;;;;16.32;65.32;99285.41;107878;1271;108577;-66
2022/05/21 01:22:51;;;;;;;;;;;;;;;16.32;65.78;99263.89;106697;1271;124165;-66
2022/05/21 01:25:25;;;;;;;;;;;;;;;16.31;66.24;99249.17;106304;1269;109055;-67
2022/05/21 01:27:55;;;;;;;;;;;;;;;16.30;66.22;99285.42;106184;1271;125368;-66
2022/05/21 01:30:28;;;;;;;;;;;;;;;16.29;66.95;99282.66;106307;1271;96485;-67
2022/05/21 01:33:02;;;;;;;;;;;;;;;16.30;67.36;99272.27;106284;1270;111135;-66
2022/05/21 01:35:33;;;;;;;;;;;;;;;16.35;67.45;99262.15;106225;1270;125919;-67
2022/05/21 01:38:05;;;;;;;;;;;;;;;16.40;67.63;99247.20;106304;1270;108699;-67
2022/05/21 01:40:36;;;;;;;;;;;;;;;16.43;67.67;99249.95;106817;1270;124508;-67
2022/05/21 01:45:55;;;;;;;;;;;;;;;16.47;67.62;99248.25;107701;1271;124470;-68
2022/05/21 01:48:28;;;;;;;;;;;;;;;16.52;67.71;99236.55;107876;1271;109293;-67
2022/05/21 01:51:06;;;;;;;;;;;;;;;16.58;67.84;99212.91;107185;1271;108875;-67
2022/05/21 01:53:39;;;;;;;;;;;;;;;16.65;67.86;99196.94;106746;1271;124679;-67
2022/05/21 01:56:11;;;;;;;;;;;;;;;16.73;68.02;99185.09;107825;1271;94828;-67
2022/05/21 01:58:42;;;;;;;;;;;;;;;16.81;68.11;99176.83;106796;1271;124404;-67
2022/05/21 02:01:13;;;;;;;;;;;;;;;16.84;67.99;99171.98;106290;1271;109010;-67
2022/05/21 02:03:44;;;;;;;;;;;;;;;16.91;68.21;99169.58;106150;1268;125140;-67
2022/05/21 02:06:14;;;;;;;;;;;;;;;16.95;68.08;99160.19;106324;1270;96464;-67
2022/05/21 02:08:44;;;;;;;;;;;;;;;16.96;68.11;99139.70;107825;1271;94370;-67
2022/05/21 02:11:15;;;;;;;;;;;;;;;16.97;68.06;99139.63;107784;1270;123589;-68
2022/05/21 02:13:46;;;;;;;;;;;;;;;16.96;68.24;99143.51;107500;1271;107647;-67
2022/05/21 02:16:16;;;;;;;;;;;;;;;16.96;68.31;99137.92;106453;1270;125510;-67
2022/05/21 02:18:47;;;;;;;;;;;;;;;16.89;68.37;99123.50;106318;1271;96495;-67
2022/05/21 02:21:18;;;;;;;;;;;;;;;16.85;68.43;99115.91;106272;1271;96595;-67
2022/05/21 02:23:49;;;;;;;;;;;;;;;16.84;68.59;99114.44;107862;1270;110892;-67
2022/05/21 02:26:19;;;;;;;;;;;;;;;16.82;68.73;99106.28;107869;1270;107761;-68
2022/05/21 02:28:49;;;;;;;;;;;;;;;16.80;68.84;99105.38;107749;1271;123818;-67
2022/05/21 02:31:21;;;;;;;;;;;;;;;16.74;68.75;99105.34;107837;1270;96575;-67
2022/05/21 02:33:51;;;;;;;;;;;;;;;16.70;68.75;99100.40;106279;1271;125571;-67
2022/05/21 02:39:25;;;;;;;;;;;;;;;16.65;68.93;99108.08;106327;1270;109372;-67
2022/05/21 02:39:29;;;;;;;;;;;;;;;16.60;69.03;99106.39;106323;1270;107845;-67
2022/05/21 02:42:00;;;;;;;;;;;;;;;16.55;69.32;99106.39;107874;1270;107724;-68
2022/05/21 02:44:31;;;;;;;;;;;;;;;16.55;69.53;99123.97;107840;1271;94384;-68
2022/05/21 02:47:02;;;;;;;;;;;;;;;16.54;69.69;99138.98;106271;1269;123861;-67
2022/05/21 02:49:32;;;;;;;;;;;;;;;16.52;69.58;99144.41;107871;1271;110714;-68
2022/05/21 02:52:03;;;;;;;;;;;;;;;16.47;69.94;99135.08;107758;1271;126082;-68
2022/05/21 02:54:36;;;;;;;;;;;;;;;16.44;69.81;99140.02;107852;1270;108812;-68
2022/05/21 02:57:08;;;;;;;;;;;;;;;16.36;70.03;99136.27;106354;1271;96526;-66
2022/05/21 02:59:39;;;;;;;;;;;;;;;16.36;70.38;99130.50;106204;1270;124132;-66
2022/05/21 03:02:10;;;;;;;;;;;;;;;16.40;70.70;99122.66;106349;1271;111484;-67
2022/05/21 03:04:41;;;;;;;;;;;;;;;16.45;70.86;99125.25;106177;1271;124802;-67
2022/05/21 03:07:11;;;;;;;;;;;;;;;16.47;70.80;99132.61;107737;1272;110128;-68
2022/05/21 03:12:29;;;;;;;;;;;;;;;16.40;71.12;99132.64;107823;1271;94827;-67
2022/05/21 03:15:00;;;;;;;;;;;;;;;16.34;71.33;99128.84;107005;1271;165794;-67
2022/05/21 03:17:31;;;;;;;;;;;;;;;16.37;71.61;99122.16;107772;1271;124488;-67
2022/05/21 03:20:03;;;;;;;;;;;;;;;16.39;71.75;99116.38;106812;1271;108825;-67
2022/05/21 03:22:34;;;;;;;;;;;;;;;16.38;71.82;99112.80;106449;1271;124631;-69
2022/05/21 03:25:06;;;;;;;;;;;;;;;16.40;72.12;99109.11;106332;1271;96551;-67
2022/05/21 03:27:37;;;;;;;;;;;;;;;16.41;72.09;99096.64;106374;1271;124474;-67
2022/05/21 03:30:09;;;;;;;;;;;;;;;16.38;72.22;99101.61;106262;1271;108791;-67
2022/05/21 03:32:40;;;;;;;;;;;;;;;16.30;72.40;99100.20;107842;1271;109262;-68
2022/05/21 03:35:13;;;;;;;;;;;;;;;16.26;72.94;99102.39;107710;1271;125187;-67
2022/05/21 03:37:43;;;;;;;;;;;;;;;16.26;72.94;99101.67;107286;1270;96823;-67
2022/05/21 03:40:15;;;;;;;;;;;;;;;16.24;73.06;99095.06;106213;1271;124863;-67
2022/05/21 03:42:46;;;;;;;;;;;;;;;16.18;73.18;99089.33;107864;1271;108310;-67
2022/05/21 03:45:17;;;;;;;;;;;;;;;16.19;73.33;99089.64;107791;1271;108938;-67
2022/05/21 03:47:48;;;;;;;;;;;;;;;16.18;73.46;99099.70;107499;1270;96582;-67
2022/05/21 03:50:20;;;;;;;;;;;;;;;16.19;73.86;99105.91;106310;1271;96472;-67
2022/05/21 03:52:51;;;;;;;;;;;;;;;16.21;73.91;99110.20;106196;1271;124502;-69
2022/05/21 03:55:22;;;;;;;;;;;;;;;16.22;74.06;99110.05;107797;1271;109151;-66
2022/05/21 03:57:53;;;;;;;;;;;;;;;16.26;73.99;99116.47;106213;1271;124820;-67
2022/05/21 04:00:23;;;;;;;;;;;;;;;16.28;74.22;99118.20;106295;1270;96464;-69
2022/05/21 04:02:54;;;;;;;;;;;;;;;16.34;74.34;99117.64;106306;1271;96548;-67
2022/05/21 04:05:25;;;;;;;;;;;;;;;16.40;74.09;99095.98;106240;1270;124259;-67
2022/05/21 04:07:56;;;;;;;;;;;;;;;16.38;73.86;99081.03;106211;1270;109151;-66
2022/05/21 04:10:26;;;;;;;;;;;;;;;16.43;74.15;99104.66;107695;1270;124126;-68
2022/05/21 04:12:57;;;;;;;;;;;;;;;16.48;74.14;99099.39;107859;1271;94511;-67
2022/05/21 04:15:27;;;;;;;;;;;;;;;16.49;73.92;99096.17;107778;1271;124431;-67
2022/05/21 04:17:57;;;;;;;;;;;;;;;16.53;73.87;99095.88;107718;1271;111244;-66
2022/05/21 04:20:28;;;;;;;;;;;;;;;16.60;73.84;99091.98;106273;1270;108921;-67
2022/05/21 04:22:59;;;;;;;;;;;;;;;16.62;73.70;99095.52;107735;1271;124046;-67
2022/05/21 04:25:29;;;;;;;;;;;;;;;16.60;73.52;99095.13;106729;1271;96602;-68
2022/05/21 04:27:59;;;;;;;;;;;;;;;16.56;73.47;99097.03;106214;1271;124068;-67
2022/05/21 04:30:30;;;;;;;;;;;;;;;16.52;73.58;99104.19;107227;1271;111008;-68
2022/05/21 04:33:01;;;;;;;;;;;;;;;16.47;73.61;99108.90;106293;1271;109230;-68
2022/05/21 04:38:16;;;;;;;;;;;;;;;16.37;73.91;99114.11;106307;1270;96989;-67
2022/05/21 04:40:47;;;;;;;;;;;;;;;16.28;73.97;99113.30;107578;1270;124105;-68
2022/05/21 04:43:17;;;;;;;;;;;;;;;16.22;74.08;99113.06;106345;1271;111612;-67
2022/05/21 04:45:48;;;;;;;;;;;;;;;16.16;74.16;99116.88;106473;1270;124129;-67
2022/05/21 04:48:19;;;;;;;;;;;;;;;16.11;74.44;99111.39;107756;1271;108827;-67
2022/05/21 04:50:49;;;;;;;;;;;;;;;16.09;74.62;99105.24;106277;1271;96495;-69
2022/05/21 04:53:19;;;;;;;;;;;;;;;16.09;74.65;99106.48;106198;1271;123769;-68
2022/05/21 04:55:50;;;;;;;;;;;;;;;16.12;74.93;99108.73;106300;1270;111154;-67
2022/05/21 04:58:21;;;;;;;;;;;;;;;16.14;74.82;99105.19;106190;1271;123727;-68
2022/05/21 05:00:52;;;;;;;;;;;;;;;16.14;74.92;99101.22;106288;1271;109059;-67
2022/05/21 05:03:22;;;;;;;;;;;;;;;16.16;75.11;99103.35;107675;1271;124691;-67
2022/05/21 05:05:53;;;;;;;;;;;;;;;16.21;75.04;99103.11;107736;1271;94729;-68
2022/05/21 05:08:24;;;;;;;;;;;;;;;16.25;75.08;99103.91;106270;1271;111183;-68
2022/05/21 05:10:55;;;;;;;;;;;;;;;16.24;75.09;99100.63;106164;1270;124513;-68
2022/05/21 05:13:25;;;;;;;;;;;;;;;16.25;75.04;99099.83;107809;1271;108878;-68
2022/05/21 05:15:58;;;;;;;;;;;;;;;16.25;75.05;99102.86;107724;1271;124603;-68
2022/05/21 05:18:30;;;;;;;;;;;;;;;16.26;75.21;99103.85;107827;1271;94948;-68
2022/05/21 05:21:01;;;;;;;;;;;;;;;16.28;75.28;99106.80;107831;1270;111584;-68
2022/05/21 05:23:32;;;;;;;;;;;;;;;16.31;75.21;99107.11;106381;1271;124560;-68
2022/05/21 05:26:02;;;;;;;;;;;;;;;16.29;75.12;99111.44;106284;1271;107359;-69
2022/05/21 05:28:33;;;;;;;;;;;;;;;16.28;75.18;99109.95;106199;1270;124549;-67
2022/05/21 05:31:04;;;;;;;;;;;;;;;16.26;75.26;99109.80;106875;1270;97084;-67
2022/05/21 05:33:34;;;;;;;;;;;;;;;16.23;75.58;99113.55;107706;1271;125187;-67
2022/05/21 05:36:05;;;;;;;;;;;;;;;16.21;75.88;99112.45;106343;1271;109074;-67
2022/05/21 05:38:35;;;;;;;;;;;;;;;16.19;75.97;99113.63;107827;1271;107840;-67
2022/05/21 05:41:08;;;;;;;;;;;;;;;16.19;76.21;99108.89;107716;1271;124520;-67
2022/05/21 05:43:41;;;;;;;;;;;;;;;16.23;76.38;99108.42;106454;1271;96502;-67
2022/05/21 05:46:11;;;;;;;;;;;;;;;16.24;76.34;99106.95;107742;1271;125194;-68
2022/05/21 05:48:42;;;;;;;;;;;;;;;16.26;76.32;99101.52;106584;1271;109025;-66
2022/05/21 05:51:13;;;;;;;;;;;;;;;16.25;76.50;99099.00;107840;1271;108673;-67
2022/05/21 05:53:44;;;;;;;;;;;;;;;16.24;76.66;99103.80;107752;1271;124252;-67
2022/05/21 05:56:15;;;;;;;;;;;;;;;16.27;76.76;99102.03;107829;1270;94640;-68
2022/05/21 06:01:33;;;;;;;;;;;;;;;16.35;76.69;99107.08;107830;1270;107949;-68
2022/05/21 06:04:04;;;;;;;;;;;;;;;16.37;76.74;99106.41;107361;1271;124170;-67
2022/05/21 06:06:34;;;;;;;;;;;;;;;16.41;76.89;99105.75;106338;1270;96468;-67
2022/05/21 06:09:06;;;;;;;;;;;;;;;16.46;76.99;99104.98;106301;1271;96480;-68
2022/05/21 06:11:38;;;;;;;;;;;;;;;16.49;77.57;99104.93;107743;1271;123895;-68
2022/05/21 06:14:09;;;;;;;;;;;;;;;16.47;77.31;99105.09;107858;1271;108869;-67
2022/05/21 06:16:39;;;;;;;;;;;;;;;16.45;77.53;99105.95;107691;1271;124136;-68
2022/05/21 06:19:10;;;;;;;;;;;;;;;16.42;77.59;99107.89;107824;1270;95106;-68
2022/05/21 06:21:40;;;;;;;;;;;;;;;16.41;77.65;99106.78;107364;1271;123761;-68
2022/05/21 06:24:10;;;;;;;;;;;;;;;16.39;77.92;99106.09;107854;1271;111296;-69
2022/05/21 06:26:41;;;;;;;;;;;;;;;16.37;77.89;99104.80;107837;1271;107848;-68
2022/05/21 06:29:11;;;;;;;;;;;;;;;16.36;77.99;99105.43;106408;1271;123790;-67
2022/05/21 06:31:44;;;;;;;;;;;;;;;16.34;78.18;99104.11;106256;1271;96470;-68
2022/05/21 06:34:15;;;;;;;;;;;;;;;16.33;78.35;99107.31;107741;1271;126531;-68
2022/05/21 06:36:45;;;;;;;;;;;;;;;16.36;78.60;99098.42;107790;1271;110055;-67
2022/05/21 06:39:15;;;;;;;;;;;;;;;16.37;78.79;99102.20;107223;1271;108738;-68
2022/05/21 06:41:46;;;;;;;;;;;;;;;16.39;79.10;99109.17;106157;1271;124733;-67
2022/05/21 06:44:18;;;;;;;;;;;;;;;16.44;79.33;99117.63;107377;1271;94752;-66
2022/05/21 06:46:49;;;;;;;;;;;;;;;16.50;79.01;99126.06;106225;1271;126931;-69
2022/05/21 06:49:26;;;;;;;;;;;;;;;16.92;77.74;99121.19;106437;1274;110688;-69
2022/05/21 06:51:57;;;;;;;;;;;;;;;17.57;75.17;99134.71;107020;1270;124732;-69
2022/05/21 06:54:29;;;;;;;;;;;;;;;19.73;70.06;99130.09;106300;1271;109192;-69
2022/05/21 06:56:59;;;;;;;;;;;;;;;22.06;63.86;99136.57;107300;1270;96507;-69
2022/05/21 06:59:30;;;;;;;;;;;;;;;23.47;58.64;99138.98;106237;1270;124046;-69
2022/05/21 07:02:01;;;;;;;;;;;;;;;23.68;57.56;99147.60;107835;1270;110195;-69
2022/05/21 07:07:35;;;;;;;;;;;;;;;24.36;54.13;99152.45;106267;1271;108961;-67
2022/05/21 07:10:09;;;;;;;;;;;;;;;24.32;52.98;99154.71;107742;1270;125564;-68
2022/05/21 07:12:39;;;;;;;;;;;;;;;24.01;51.79;99158.25;107865;1270;95149;-68
2022/05/21 07:15:11;;;;;;;;;;;;;;;23.10;51.68;99170.67;106902;1270;109913;-67
2022/05/21 07:17:41;;;;;;;;;;;;;;;22.28;52.71;99175.48;106429;1271;124287;-68
2022/05/21 07:20:15;;;;;;;;;;;;;;;21.55;53.03;99182.17;106222;1271;108775;-69
2022/05/21 07:22:46;;;;;;;;;;;;;;;20.78;53.42;99170.22;106327;1270;123909;-68
2022/05/21 07:25:18;;;;;;;;;;;;;;;20.09;54.21;99182.41;106996;1272;96492;-69
2022/05/21 07:27:48;;;;;;;;;;;;;;;19.48;54.94;99204.86;106238;1271;123840;-69
2022/05/21 07:30:19;;;;;;;;;;;;;;;18.96;55.82;99208.21;106342;1271;108187;-68
2022/05/21 07:32:52;;;;;;;;;;;;;;;18.52;56.47;99205.40;107815;1270;108716;-69
2022/05/21 07:35:23;;;;;;;;;;;;;;;18.13;57.18;99222.88;107690;1271;124825;-69
2022/05/21 07:37:53;;;;;;;;;;;;;;;17.82;57.95;99236.52;107886;1270;94852;-69
2022/05/21 07:40:25;;;;;;;;;;;;;;;17.57;58.57;99233.23;107727;1271;123751;-68
2022/05/21 07:42:55;;;;;;;;;;;;;;;17.33;58.99;99245.55;107814;1270;107918;-69
2022/05/21 07:45:26;;;;;;;;;;;;;;;17.17;59.59;99246.29;107365;1272;123978;-70
2022/05/21 07:47:59;;;;;;;;;;;;;;;17.00;60.09;99251.08;106272;1271;96564;-69
2022/05/21 07:50:30;;;;;;;;;;;;;;;16.80;60.26;99261.14;107821;1271;94621;-68
2022/05/21 07:53:00;;;;;;;;;;;;;;;16.63;60.21;99247.46;107730;1271;123665;-69
2022/05/21 07:55:31;;;;;;;;;;;;;;;16.48;60.19;99268.20;107857;1271;107856;-68
2022/05/21 07:58:01;;;;;;;;;;;;;;;16.40;60.45;99250.05;106806;1272;124121;-69
2022/05/21 08:00:32;;;;;;;;;;;;;;;16.32;60.48;99274.06;106295;1271;97790;-69
2022/05/21 08:03:02;;;;;;;;;;;;;;;16.26;60.41;99257.48;106305;1271;96505;-69
2022/05/21 08:05:34;;;;;;;;;;;;;;;16.18;60.54;99273.87;106201;1271;123737;-69
2022/05/21 08:08:05;;;;;;;;;;;;;;;16.09;60.59;99275.33;106293;1270;108962;-70
2022/05/21 08:10:35;;;;;;;;;;;;;;;16.02;60.62;99269.18;106510;1270;126477;-70
2022/05/21 08:13:06;;;;;;;;;;;;;;;15.95;60.81;99282.11;106325;1270;96456;-69
2022/05/21 08:15:38;;;;;;;;;;;;;;;15.89;61.02;99286.78;106199;1271;124168;-70
2022/05/21 08:18:09;;;;;;;;;;;;;;;15.80;60.88;99284.07;106300;1270;111067;-70
2022/05/21 08:20:40;;;;;;;;;;;;;;;15.72;61.02;99296.30;106663;1271;108315;-69
2022/05/21 08:28:51;;;;;;;;;;;;;;;15.60;60.63;99309.91;106199;1270;123601;-70
2022/05/21 08:31:27;;;;;;;;;;;;;;;15.60;60.51;99306.92;106366;1271;109679;-69
2022/05/21 08:33:57;;;;;;;;;;;;;;;15.68;60.38;99320.29;106853;1270;125176;-69
2022/05/21 08:36:29;;;;;;;;;;;;;;;15.73;59.97;99322.91;107820;1270;107468;-69
2022/05/21 08:38:59;;;;;;;;;;;;;;;15.75;59.99;99324.73;106743;1270;96505;-68
2022/05/21 08:41:31;;;;;;;;;;;;;;;15.74;59.92;99331.80;106170;1271;124181;-69
2022/05/21 08:44:04;;;;;;;;;;;;;;;15.72;59.70;99336.64;107841;1271;110207;-68
2022/05/21 08:46:42;;;;;;;;;;;;;;;15.68;59.47;99340.93;107721;1271;124992;-68
2022/05/21 08:49:19;;;;;;;;;;;;;;;15.66;59.57;99343.21;107844;1270;108935;-68
2022/05/21 08:51:53;;;;;;;;;;;;;;;15.64;59.87;99353.45;107626;1271;124381;-68
2022/05/21 08:54:25;;;;;;;;;;;;;;;15.64;59.53;99356.30;107193;1271;96484;-68
2022/05/21 08:56:57;;;;;;;;;;;;;;;15.64;59.29;99355.40;107822;1270;110089;-68
2022/05/21 08:59:31;;;;;;;;;;;;;;;15.88;59.43;99343.92;107737;1271;128001;-69
2022/05/21 09:02:01;;;;;;;;;;;;;;;16.82;58.22;99329.24;106630;1271;108938;-68
2022/05/21 09:04:32;;;;;;;;;;;;;;;17.45;55.83;99327.44;107680;1271;124532;-68
2022/05/21 09:07:04;;;;;;;;;;;;;;;17.92;54.62;99329.71;107541;1271;95124;-67
2022/05/21 09:09:41;;;;;;;;;;;;;;;18.12;53.67;99333.40;106173;1271;123756;-67
2022/05/21 09:12:16;;;;;;;;;;;;;;;18.13;51.22;99332.08;106308;1269;108934;-67
2022/05/21 09:14:49;;;;;;;;;;;;;;;17.91;50.83;99337.34;106295;1271;109135;-68
2022/05/21 09:17:21;;;;;;;;;;;;;;;17.72;51.34;99337.75;106167;1270;124447;-68
2022/05/21 09:19:55;;;;;;;;;;;;;;;17.49;51.35;99348.39;106285;1272;96470;-68
2022/05/21 09:22:33;;;;;;;;;;;;;;;17.30;51.91;99343.32;106201;1270;124365;-68
2022/05/21 09:25:20;;;;;;;;;;;;;;;17.19;52.35;99347.97;106313;1271;108350;-69
2022/05/21 09:28:00;;;;;;;;;;;;;;;17.20;53.02;99364.97;106237;1270;125208;-69
2022/05/21 09:30:32;;;;;;;;;;;;;;;17.26;53.39;99358.59;106284;1270;96458;-69
2022/05/21 09:33:20;;;;;;;;;;;;;;;17.36;53.82;99351.65;106310;1271;96476;-68
2022/05/21 09:35:53;;;;;;;;;;;;;;;17.48;53.41;99346.02;106307;1271;110404;-67
2022/05/21 09:38:26;;;;;;;;;;;;;;;17.46;53.19;99356.16;106279;1271;108951;-68
2022/05/21 09:41:06;;;;;;;;;;;;;;;17.35;52.94;99363.32;107739;1271;125126;-69
2022/05/21 09:46:29;;;;;;;;;;;;;;;17.05;53.46;99365.93;106004;1277;124060;-68
2022/05/21 09:49:14;;;;;;;;;;;;;;;16.90;53.67;99366.95;107574;1275;111124;-68
2022/05/21 09:51:52;;;;;;;;;;;;;;;16.78;54.04;99366.27;107458;1275;124952;-68
2022/05/21 09:54:25;;;;;;;;;;;;;;;16.73;54.40;99380.99;107348;1275;108873;-68
2022/05/21 09:56:57;;;;;;;;;;;;;;;16.69;54.39;99367.99;106110;1275;96608;-69
2022/05/21 09:59:29;;;;;;;;;;;;;;;16.59;54.02;99376.52;107194;1275;123747;-68
2022/05/21 10:02:01;;;;;;;;;;;;;;;16.52;54.12;99383.55;106265;1275;110339;-68
2022/05/21 10:04:39;;;;;;;;;;;;;;;16.43;54.22;99389.48;105959;1275;125759;-68
2022/05/21 10:10:58;;;;;;;;;;;;;;;16.33;54.37;99393.46;106017;1276;108656;-70
2022/05/21 10:13:03;;;;;;;;;;;;;;;16.16;54.48;99406.75;106131;1275;96583;-68
2022/05/21 10:15:39;;;;;;;;;;;;;;;16.07;54.60;99405.59;106033;1275;124230;-69
2022/05/21 10:18:14;;;;;;;;;;;;;;;16.07;54.60;99412.98;107552;1275;108218;-68
2022/05/21 10:20:46;;;;;;;;;;;;;;;16.03;54.60;99429.23;107343;1276;108953;-68
2022/05/21 10:23:27;;;;;;;;;;;;;;;15.98;54.53;99422.54;107469;1271;124363;-67
2022/05/21 10:26:06;;;;;;;;;;;;;;;15.91;54.55;99434.39;107887;1271;94582;-68
2022/05/21 10:28:44;;;;;;;;;;;;;;;15.89;54.72;99436.29;107743;1269;123696;-68
2022/05/21 10:31:26;;;;;;;;;;;;;;;15.90;54.62;99433.05;107860;1270;108818;-68
2022/05/21 10:34:07;;;;;;;;;;;;;;;15.86;54.55;99433.17;107725;1270;124047;-68
2022/05/21 10:36:55;;;;;;;;;;;;;;;15.83;54.61;99440.36;107524;1271;96502;-69
2022/05/21 10:39:31;;;;;;;;;;;;;;;15.82;54.81;99442.73;106224;1271;123768;-67
2022/05/21 10:42:15;;;;;;;;;;;;;;;15.79;54.90;99441.72;106327;1271;110733;-66
2022/05/21 10:44:53;;;;;;;;;;;;;;;15.73;55.25;99445.96;106548;1271;108095;-68
2022/05/21 10:47:30;;;;;;;;;;;;;;;15.66;55.40;99449.58;106175;1270;124253;-68
2022/05/21 10:50:11;;;;;;;;;;;;;;;15.58;55.49;99449.67;106269;1271;96470;-68
2022/05/21 10:52:50;;;;;;;;;;;;;;;15.50;55.38;99468.06;106387;1271;123652;-68
2022/05/21 10:55:24;;;;;;;;;;;;;;;15.43;55.62;99475.00;106324;1271;111349;-68
2022/05/21 10:58:22;;;;;;;;;;;;;;;15.41;55.97;99479.70;106178;1271;125407;-67
2022/05/21 11:00:59;;;;;;;;;;;;;;;15.57;56.45;99476.39;107662;1271;109093;-69
2022/05/21 11:03:48;;;;;;;;;;;;;;;15.98;55.89;99469.69;106164;1271;124403;-68
2022/05/21 11:06:32;;;;;;;;;;;;;;;16.22;55.11;99469.44;106185;1274;96503;-68
2022/05/21 11:09:09;;;;;;;;;;;;;;;16.37;54.71;99476.88;106134;1274;110888;-67
2022/05/21 11:11:48;;;;;;;;;;;;;;;16.56;54.06;99468.55;106046;1274;124379;-68
2022/05/21 11:14:23;;;;;;;;;;;;;;;16.88;53.56;99472.50;106127;1274;108817;-68
2022/05/21 11:16:56;;;;;;;;;;;;;;;17.16;52.65;99470.50;107495;1274;124546;-68
2022/05/21 11:19:34;;;;;;;;;;;;;;;17.29;52.01;99485.04;107637;1274;94725;-68
2022/05/21 11:22:08;;;;;;;;;;;;;;;17.27;51.81;99479.70;107564;1274;124893;-68
2022/05/21 11:24:41;;;;;;;;;;;;;;;17.29;51.96;99492.77;107604;1274;109131;-69
2022/05/21 11:27:18;;;;;;;;;;;;;;;17.35;51.81;99503.39;107346;1273;107750;-68
2022/05/21 11:29:52;;;;;;;;;;;;;;;17.34;50.17;99483.07;106070;1275;96524;-69
2022/05/21 11:38:20;;;;;;;;;;;;;;;16.91;50.64;99504.60;106103;1275;109084;-69
2022/05/21 11:43:55;;;;;;;;;;;;;;;16.62;51.32;99527.80;107671;1270;94908;-69
2022/05/21 11:46:35;;;;;;;;;;;;;;;16.56;51.34;99528.38;107527;1271;123654;-69
2022/05/21 11:49:29;;;;;;;;;;;;;;;16.59;51.17;99527.45;106529;1270;111271;-68
2022/05/21 11:52:20;;;;;;;;;;;;;;;16.73;50.89;99521.79;106275;1271;124608;-67
2022/05/21 11:55:11;;;;;;;;;;;;;;;16.91;50.56;99523.86;106626;1270;107662;-69
2022/05/21 11:57:43;;;;;;;;;;;;;;;17.06;50.45;99522.17;107291;1271;124622;-68
2022/05/21 12:00:27;;;;;;;;;;;;;;;17.09;50.45;99520.90;107904;1270;94839;-68
2022/05/21 12:03:15;;;;;;;;;;;;;;;17.04;50.42;99526.86;107502;1270;110978;-67
2022/05/21 12:06:12;;;;;;;;;;;;;;;16.88;50.42;99523.57;107322;1271;123713;-68
2022/05/21 12:08:46;;;;;;;;;;;;;;;16.72;50.74;99530.49;107830;1271;107422;-68
2022/05/21 12:11:36;;;;;;;;;;;;;;;16.62;51.14;99533.05;107762;1271;124146;-68
2022/05/21 12:14:07;;;;;;;;;;;;;;;16.56;51.53;99540.13;107456;1270;94656;-67
2022/05/21 12:16:46;;;;;;;;;;;;;;;16.56;51.45;99539.10;106269;1271;124874;-68
2022/05/21 12:19:30;;;;;;;;;;;;;;;16.54;51.14;99539.08;107848;1270;107957;-68
2022/05/21 12:22:03;;;;;;;;;;;;;;;16.54;50.42;99537.14;106648;1271;124133;-68
2022/05/21 12:24:35;;;;;;;;;;;;;;;16.70;50.01;99539.90;107347;1271;96379;-68
2022/05/21 12:27:11;;;;;;;;;;;;;;;16.92;49.48;99537.88;107916;1270;94551;-68
2022/05/21 12:29:45;;;;;;;;;;;;;;;17.05;49.00;99542.38;107768;1271;125718;-68
2022/05/21 12:32:17;;;;;;;;;;;;;;;17.12;48.91;99557.04;107751;1271;109036;-68
2022/05/21 12:35:04;;;;;;;;;;;;;;;17.18;48.83;99554.62;106606;1271;123982;-68
2022/05/21 12:37:37;;;;;;;;;;;;;;;17.20;48.54;99559.94;107620;1271;94449;-68
2022/05/21 12:40:13;;;;;;;;;;;;;;;17.20;48.49;99567.46;106290;1270;123887;-69
2022/05/21 12:42:46;;;;;;;;;;;;;;;17.24;48.38;99565.45;106278;1271;110860;-69
2022/05/21 12:45:30;;;;;;;;;;;;;;;17.29;48.16;99564.22;106729;1271;108720;-67
2022/05/21 12:48:05;;;;;;;;;;;;;;;17.35;47.77;99567.88;106348;1271;108714;-68
2022/05/21 12:50:36;;;;;;;;;;;;;;;17.36;47.53;99573.60;106836;1271;95704;-69
2022/05/21 12:53:09;;;;;;;;;;;;;;;17.33;47.27;99567.98;107576;1271;124318;-68
2022/05/21 12:55:39;;;;;;;;;;;;;;;17.28;47.12;99573.84;107849;1270;108381;-68
2022/05/21 12:58:20;;;;;;;;;;;;;;;17.16;47.32;99574.27;107727;1271;123799;-68
2022/05/21 13:00:52;;;;;;;;;;;;;;;17.02;47.75;99565.95;107646;1271;107732;-67
2022/05/21 13:03:24;;;;;;;;;;;;;;;16.83;47.56;99561.09;106373;1271;96517;-67
2022/05/21 13:05:57;;;;;;;;;;;;;;;16.65;47.92;99587.63;107372;1270;96245;-68
2022/05/21 13:08:29;;;;;;;;;;;;;;;16.54;47.80;99581.36;107805;1271;111407;-69
2022/05/21 13:11:02;;;;;;;;;;;;;;;16.49;47.97;99583.77;107261;1271;123966;-67
2022/05/21 13:13:35;;;;;;;;;;;;;;;16.54;48.34;99584.14;107837;1271;107620;-68
2022/05/21 13:16:07;;;;;;;;;;;;;;;16.79;48.51;99582.79;107723;1271;124402;-68
2022/05/21 13:18:40;;;;;;;;;;;;;;;17.09;48.34;99579.57;107189;1271;96913;-68
2022/05/21 13:21:15;;;;;;;;;;;;;;;17.30;47.88;99578.95;106954;1271;109967;-67
2022/05/21 13:23:51;;;;;;;;;;;;;;;17.36;47.79;99578.16;106421;1271;123840;-68
2022/05/21 13:26:23;;;;;;;;;;;;;;;17.34;47.97;99583.37;107842;1271;107728;-68
2022/05/21 13:29:11;;;;;;;;;;;;;;;17.25;47.88;99579.66;107806;1270;124805;-68
2022/05/21 13:31:41;;;;;;;;;;;;;;;17.05;47.86;99586.52;106777;1271;96460;-67
2022/05/21 13:34:16;;;;;;;;;;;;;;;16.86;47.86;99581.13;106724;1271;123779;-67